LKNA

Náměšť Air Base Airport

Náměšť, Czech Republic
METAR LKNA 240808Z 01005KT 340V050 8000 -SN OVC011 M06/M08 Q1005 RMK GRN
Observed Flight Rules
Jan-24 @ 08:08 UTC (34 minutes ago) Marginal Visual Flight Rules
Wind Visibility Clouds Conditions
10° at 5 knots 7,998 meters
  • Overcast at 1,100' AGL
  • Light Snow
Temperatures Readings
Current -6°C / 21°F
Dewpoint -8°C / 18°F
Humidity 86%
Altimeter 29.68" Hg
Pressure 1004.92 hPa
Elevation 472
METAR LKNA 240808Z 01005KT 340V050 8000 -SN OVC011 M06/M08 Q1005 RMK GRN
Observed Flight Rules
Jan-24 @ 08:08 UTC
(34 minutes ago)
MVFR
Wind Visibility
10° at 5 knots 7,998 meters
Clouds
  • Overcast at 1,100' AGL
Conditions
  • Light Snow
Temperature Dewpoint
-6°C / 21°F -8°C / 18°F
Humidity Altimeter Pressure
86% 29.68" Hg 1004.92 hPa